sensor_id;sensor_type;location;lat;lon;timestamp;temperature;humidity
67502;SHT30;54349;52.528;19.760;2023-03-24T00:01:27;23.27;43.60
67502;SHT30;54349;52.528;19.760;2023-03-24T00:03:55;23.29;43.61
67502;SHT30;54349;52.528;19.760;2023-03-24T00:06:24;23.30;43.58
67502;SHT30;54349;52.528;19.760;2023-03-24T00:08:53;23.30;43.65
67502;SHT30;54349;52.528;19.760;2023-03-24T00:11:22;23.30;43.60
67502;SHT30;54349;52.528;19.760;2023-03-24T00:13:52;23.32;43.60
67502;SHT30;54349;52.528;19.760;2023-03-24T00:16:20;23.32;43.61
67502;SHT30;54349;52.528;19.760;2023-03-24T00:18:49;23.32;43.58
67502;SHT30;54349;52.528;19.760;2023-03-24T00:21:22;23.33;43.61
67502;SHT30;54349;52.528;19.760;2023-03-24T00:23:53;23.33;43.54
67502;SHT30;54349;52.528;19.760;2023-03-24T00:26:25;23.34;43.55
67502;SHT30;54349;52.528;19.760;2023-03-24T00:28:53;23.33;43.43
67502;SHT30;54349;52.528;19.760;2023-03-24T00:31:24;23.33;43.39
67502;SHT30;54349;52.528;19.760;2023-03-24T00:33:53;23.33;43.46
67502;SHT30;54349;52.528;19.760;2023-03-24T00:36:23;23.32;43.56
67502;SHT30;54349;52.528;19.760;2023-03-24T00:38:56;23.33;43.50
67502;SHT30;54349;52.528;19.760;2023-03-24T00:41:25;23.33;43.39
67502;SHT30;54349;52.528;19.760;2023-03-24T00:43:56;23.33;43.42
67502;SHT30;54349;52.528;19.760;2023-03-24T00:46:27;23.32;43.29
67502;SHT30;54349;52.528;19.760;2023-03-24T00:49:02;23.30;43.12
67502;SHT30;54349;52.528;19.760;2023-03-24T00:51:43;23.29;43.35
67502;SHT30;54349;52.528;19.760;2023-03-24T00:54:12;23.28;43.46
67502;SHT30;54349;52.528;19.760;2023-03-24T00:56:41;23.30;43.57
67502;SHT30;54349;52.528;19.760;2023-03-24T00:59:10;23.29;43.59
67502;SHT30;54349;52.528;19.760;2023-03-24T01:01:40;23.30;43.74
67502;SHT30;54349;52.528;19.760;2023-03-24T01:04:10;23.32;43.68
67502;SHT30;54349;52.528;19.760;2023-03-24T01:06:38;23.33;43.54
67502;SHT30;54349;52.528;19.760;2023-03-24T01:09:08;23.35;43.38
67502;SHT30;54349;52.528;19.760;2023-03-24T01:11:38;23.36;43.22
67502;SHT30;54349;52.528;19.760;2023-03-24T01:14:09;23.36;43.06
67502;SHT30;54349;52.528;19.760;2023-03-24T01:16:39;23.37;42.95
67502;SHT30;54349;52.528;19.760;2023-03-24T01:19:09;23.36;42.80
67502;SHT30;54349;52.528;19.760;2023-03-24T01:21:41;23.37;42.66
67502;SHT30;54349;52.528;19.760;2023-03-24T01:24:10;23.37;42.54
67502;SHT30;54349;52.528;19.760;2023-03-24T01:26:40;23.37;42.42
67502;SHT30;54349;52.528;19.760;2023-03-24T01:29:09;23.36;42.32
67502;SHT30;54349;52.528;19.760;2023-03-24T01:31:37;23.36;42.25
67502;SHT30;54349;52.528;19.760;2023-03-24T01:34:06;23.35;42.16
67502;SHT30;54349;52.528;19.760;2023-03-24T01:36:35;23.34;42.07
67502;SHT30;54349;52.528;19.760;2023-03-24T01:39:03;23.34;41.99
67502;SHT30;54349;52.528;19.760;2023-03-24T01:41:33;23.32;41.90
67502;SHT30;54349;52.528;19.760;2023-03-24T01:47:04;23.31;41.79
67502;SHT30;54349;52.528;19.760;2023-03-24T01:49:55;23.29;41.68
67502;SHT30;54349;52.528;19.760;2023-03-24T01:52:30;23.29;41.61
67502;SHT30;54349;52.528;19.760;2023-03-24T01:55:07;23.28;41.54
67502;SHT30;54349;52.528;19.760;2023-03-24T01:57:53;23.26;41.48
67502;SHT30;54349;52.528;19.760;2023-03-24T02:00:33;23.25;41.40
67502;SHT30;54349;52.528;19.760;2023-03-24T02:03:24;23.24;41.37
67502;SHT30;54349;52.528;19.760;2023-03-24T02:05:58;23.23;41.32
67502;SHT30;54349;52.528;19.760;2023-03-24T02:08:51;23.21;41.28
67502;SHT30;54349;52.528;19.760;2023-03-24T02:11:22;23.20;41.22
67502;SHT30;54349;52.528;19.760;2023-03-24T02:13:58;23.20;41.20
67502;SHT30;54349;52.528;19.760;2023-03-24T02:16:31;23.18;41.15
67502;SHT30;54349;52.528;19.760;2023-03-24T02:45:38;23.03;40.83
67502;SHT30;54349;52.528;19.760;2023-03-24T02:48:30;23.02;40.81
67502;SHT30;54349;52.528;19.760;2023-03-24T02:51:13;23.00;40.80
67502;SHT30;54349;52.528;19.760;2023-03-24T02:56:59;22.98;40.80
67502;SHT30;54349;52.528;19.760;2023-03-24T03:00:35;22.96;40.79
67502;SHT30;54349;52.528;19.760;2023-03-24T03:04:02;22.95;40.77
67502;SHT30;54349;52.528;19.760;2023-03-24T03:06:46;22.94;40.75
67502;SHT30;54349;52.528;19.760;2023-03-24T03:09:20;22.93;40.72
67502;SHT30;54349;52.528;19.760;2023-03-24T03:11:52;22.93;40.71
67502;SHT30;54349;52.528;19.760;2023-03-24T03:17:06;22.90;40.69
67502;SHT30;54349;52.528;19.760;2023-03-24T03:19:44;22.90;40.69
67502;SHT30;54349;52.528;19.760;2023-03-24T03:22:24;22.89;40.68
67502;SHT30;54349;52.528;19.760;2023-03-24T03:24:58;22.88;40.64
67502;SHT30;54349;52.528;19.760;2023-03-24T03:27:30;22.86;40.63
67502;SHT30;54349;52.528;19.760;2023-03-24T03:30:12;22.85;40.64
67502;SHT30;54349;52.528;19.760;2023-03-24T03:32:51;22.83;40.60
67502;SHT30;54349;52.528;19.760;2023-03-24T03:35:37;22.82;40.60
67502;SHT30;54349;52.528;19.760;2023-03-24T03:38:17;22.81;40.59
67502;SHT30;54349;52.528;19.760;2023-03-24T03:41:15;22.79;40.59
67502;SHT30;54349;52.528;19.760;2023-03-24T03:43:46;22.77;40.59
67502;SHT30;54349;52.528;19.760;2023-03-24T03:46:17;22.77;40.58
67502;SHT30;54349;52.528;19.760;2023-03-24T03:48:46;22.76;40.54
67502;SHT30;54349;52.528;19.760;2023-03-24T03:51:15;22.75;40.51
67502;SHT30;54349;52.528;19.760;2023-03-24T03:53:51;22.75;40.50
67502;SHT30;54349;52.528;19.760;2023-03-24T03:56:27;22.74;40.50
67502;SHT30;54349;52.528;19.760;2023-03-24T03:59:26;22.73;40.49
67502;SHT30;54349;52.528;19.760;2023-03-24T04:19:51;22.63;40.40
67502;SHT30;54349;52.528;19.760;2023-03-24T04:26:18;22.62;40.39
67502;SHT30;54349;52.528;19.760;2023-03-24T04:31:50;22.60;40.27
67502;SHT30;54349;52.528;19.760;2023-03-24T04:34:34;22.62;40.15
67502;SHT30;54349;52.528;19.760;2023-03-24T04:37:25;22.65;40.06
67502;SHT30;54349;52.528;19.760;2023-03-24T04:40:08;22.69;40.00
67502;SHT30;54349;52.528;19.760;2023-03-24T04:42:41;22.72;39.95
67502;SHT30;54349;52.528;19.760;2023-03-24T04:45:15;22.75;39.93
67502;SHT30;54349;52.528;19.760;2023-03-24T04:48:05;22.79;39.87
67502;SHT30;54349;52.528;19.760;2023-03-24T04:51:09;22.84;39.79
67502;SHT30;54349;52.528;19.760;2023-03-24T04:53:55;22.90;39.72
67502;SHT30;54349;52.528;19.760;2023-03-24T04:59:16;22.96;39.58
67502;SHT30;54349;52.528;19.760;2023-03-24T05:01:45;22.98;39.51
67502;SHT30;54349;52.528;19.760;2023-03-24T05:04:32;23.01;39.52
67502;SHT30;54349;52.528;19.760;2023-03-24T05:07:30;23.05;39.43
67502;SHT30;54349;52.528;19.760;2023-03-24T05:10:00;23.08;39.41
67502;SHT30;54349;52.528;19.760;2023-03-24T05:12:28;23.11;39.35
67502;SHT30;54349;52.528;19.760;2023-03-24T05:15:16;23.15;39.28
67502;SHT30;54349;52.528;19.760;2023-03-24T05:17:46;23.18;39.23
67502;SHT30;54349;52.528;19.760;2023-03-24T05:20:15;23.21;39.18
67502;SHT30;54349;52.528;19.760;2023-03-24T05:22:46;23.23;39.15
67502;SHT30;54349;52.528;19.760;2023-03-24T05:25:16;23.23;39.16
67502;SHT30;54349;52.528;19.760;2023-03-24T05:27:46;23.22;39.17
67502;SHT30;54349;52.528;19.760;2023-03-24T05:30:19;23.23;39.19
67502;SHT30;54349;52.528;19.760;2023-03-24T05:32:49;23.23;39.16
67502;SHT30;54349;52.528;19.760;2023-03-24T05:35:18;23.23;39.14
67502;SHT30;54349;52.528;19.760;2023-03-24T05:37:46;23.23;39.20
67502;SHT30;54349;52.528;19.760;2023-03-24T05:40:15;23.22;39.23
67502;SHT30;54349;52.528;19.760;2023-03-24T05:42:49;23.20;39.31
67502;SHT30;54349;52.528;19.760;2023-03-24T05:45:18;23.19;39.36
67502;SHT30;54349;52.528;19.760;2023-03-24T05:47:46;23.17;39.45
67502;SHT30;54349;52.528;19.760;2023-03-24T05:50:16;23.15;39.51
67502;SHT30;54349;52.528;19.760;2023-03-24T05:52:45;23.13;39.58
67502;SHT30;54349;52.528;19.760;2023-03-24T05:55:49;23.11;39.61
67502;SHT30;54349;52.528;19.760;2023-03-24T05:58:40;23.09;39.66
67502;SHT30;54349;52.528;19.760;2023-03-24T06:01:11;23.07;39.70
67502;SHT30;54349;52.528;19.760;2023-03-24T06:03:40;23.05;39.74
67502;SHT30;54349;52.528;19.760;2023-03-24T06:06:12;23.03;39.77
67502;SHT30;54349;52.528;19.760;2023-03-24T06:08:42;23.02;39.83
67502;SHT30;54349;52.528;19.760;2023-03-24T06:11:14;23.00;39.89
67502;SHT30;54349;52.528;19.760;2023-03-24T06:14:01;23.00;39.90
67502;SHT30;54349;52.528;19.760;2023-03-24T06:16:36;22.97;39.92
67502;SHT30;54349;52.528;19.760;2023-03-24T06:19:08;22.94;39.98
67502;SHT30;54349;52.528;19.760;2023-03-24T06:21:56;22.93;39.98
67502;SHT30;54349;52.528;19.760;2023-03-24T06:24:33;22.92;40.08
67502;SHT30;54349;52.528;19.760;2023-03-24T06:27:04;22.90;40.09
67502;SHT30;54349;52.528;19.760;2023-03-24T06:29:36;22.90;40.10
67502;SHT30;54349;52.528;19.760;2023-03-24T06:32:05;22.89;40.09
67502;SHT30;54349;52.528;19.760;2023-03-24T06:34:39;22.88;40.10
67502;SHT30;54349;52.528;19.760;2023-03-24T06:37:28;22.87;40.09
67502;SHT30;54349;52.528;19.760;2023-03-24T06:39:56;22.86;40.09
67502;SHT30;54349;52.528;19.760;2023-03-24T06:42:27;22.86;40.06
67502;SHT30;54349;52.528;19.760;2023-03-24T06:44:55;22.86;40.05
67502;SHT30;54349;52.528;19.760;2023-03-24T06:47:23;22.85;40.00
67502;SHT30;54349;52.528;19.760;2023-03-24T06:49:52;22.87;40.00
67502;SHT30;54349;52.528;19.760;2023-03-24T06:52:20;22.87;40.00
67502;SHT30;54349;52.528;19.760;2023-03-24T06:54:48;22.87;39.98
67502;SHT30;54349;52.528;19.760;2023-03-24T06:57:17;22.89;40.24
67502;SHT30;54349;52.528;19.760;2023-03-24T07:00:04;22.91;40.42
67502;SHT30;54349;52.528;19.760;2023-03-24T07:02:42;22.94;40.71
67502;SHT30;54349;52.528;19.760;2023-03-24T07:05:11;22.99;41.00
67502;SHT30;54349;52.528;19.760;2023-03-24T07:07:42;23.02;41.08
67502;SHT30;54349;52.528;19.760;2023-03-24T07:10:26;23.04;41.29
67502;SHT30;54349;52.528;19.760;2023-03-24T07:12:55;23.06;41.47
67502;SHT30;54349;52.528;19.760;2023-03-24T07:15:24;23.08;41.56
67502;SHT30;54349;52.528;19.760;2023-03-24T07:17:54;23.11;41.67
67502;SHT30;54349;52.528;19.760;2023-03-24T07:20:51;23.13;41.77
67502;SHT30;54349;52.528;19.760;2023-03-24T07:23:21;23.15;41.81
67502;SHT30;54349;52.528;19.760;2023-03-24T07:26:09;23.17;41.89
67502;SHT30;54349;52.528;19.760;2023-03-24T07:28:46;23.19;41.93
67502;SHT30;54349;52.528;19.760;2023-03-24T07:31:29;23.22;42.01
67502;SHT30;54349;52.528;19.760;2023-03-24T07:34:06;23.23;42.06
67502;SHT30;54349;52.528;19.760;2023-03-24T07:36:38;23.26;42.10
67502;SHT30;54349;52.528;19.760;2023-03-24T07:39:10;23.28;42.14
67502;SHT30;54349;52.528;19.760;2023-03-24T07:41:40;23.30;42.16
67502;SHT30;54349;52.528;19.760;2023-03-24T07:44:14;23.33;42.24
67502;SHT30;54349;52.528;19.760;2023-03-24T07:46:49;23.37;42.30
67502;SHT30;54349;52.528;19.760;2023-03-24T07:49:17;23.40;42.34
67502;SHT30;54349;52.528;19.760;2023-03-24T07:52:02;23.44;42.34
67502;SHT30;54349;52.528;19.760;2023-03-24T07:54:44;23.46;42.38
67502;SHT30;54349;52.528;19.760;2023-03-24T07:57:29;23.50;42.51
67502;SHT30;54349;52.528;19.760;2023-03-24T07:59:59;23.51;42.77
67502;SHT30;54349;52.528;19.760;2023-03-24T08:02:42;23.53;42.79
67502;SHT30;54349;52.528;19.760;2023-03-24T08:05:36;23.57;42.87
67502;SHT30;54349;52.528;19.760;2023-03-24T08:08:23;23.60;42.85
67502;SHT30;54349;52.528;19.760;2023-03-24T08:10:52;23.63;42.87
67502;SHT30;54349;52.528;19.760;2023-03-24T08:13:20;23.66;42.81
67502;SHT30;54349;52.528;19.760;2023-03-24T08:15:49;23.69;42.87
67502;SHT30;54349;52.528;19.760;2023-03-24T08:18:19;23.73;42.87
67502;SHT30;54349;52.528;19.760;2023-03-24T08:20:48;23.75;42.83
67502;SHT30;54349;52.528;19.760;2023-03-24T08:23:24;23.78;42.80
67502;SHT30;54349;52.528;19.760;2023-03-24T08:25:54;23.79;42.82
67502;SHT30;54349;52.528;19.760;2023-03-24T08:28:23;23.81;42.83
67502;SHT30;54349;52.528;19.760;2023-03-24T08:30:54;23.83;42.84
67502;SHT30;54349;52.528;19.760;2023-03-24T08:33:24;23.85;42.88
67502;SHT30;54349;52.528;19.760;2023-03-24T08:35:53;23.88;42.86
67502;SHT30;54349;52.528;19.760;2023-03-24T08:38:25;23.90;42.80
67502;SHT30;54349;52.528;19.760;2023-03-24T08:41:01;23.93;42.85
67502;SHT30;54349;52.528;19.760;2023-03-24T08:43:34;23.95;42.80
67502;SHT30;54349;52.528;19.760;2023-03-24T08:46:05;23.98;42.74
67502;SHT30;54349;52.528;19.760;2023-03-24T08:48:39;24.00;42.73
67502;SHT30;54349;52.528;19.760;2023-03-24T08:51:09;24.02;42.77
67502;SHT30;54349;52.528;19.760;2023-03-24T08:53:41;24.05;42.72
67502;SHT30;54349;52.528;19.760;2023-03-24T08:56:10;24.07;42.71
67502;SHT30;54349;52.528;19.760;2023-03-24T08:58:39;24.08;42.71
67502;SHT30;54349;52.528;19.760;2023-03-24T09:01:07;24.09;42.72
67502;SHT30;54349;52.528;19.760;2023-03-24T09:03:37;24.12;42.76
67502;SHT30;54349;52.528;19.760;2023-03-24T09:06:06;24.14;42.78
67502;SHT30;54349;52.528;19.760;2023-03-24T09:08:36;24.15;42.74
67502;SHT30;54349;52.528;19.760;2023-03-24T09:11:05;24.17;42.80
67502;SHT30;54349;52.528;19.760;2023-03-24T09:13:34;24.20;42.82
67502;SHT30;54349;52.528;19.760;2023-03-24T09:16:02;24.21;42.88
67502;SHT30;54349;52.528;19.760;2023-03-24T09:18:31;24.23;42.99
67502;SHT30;54349;52.528;19.760;2023-03-24T09:21:00;24.24;43.08
67502;SHT30;54349;52.528;19.760;2023-03-24T09:23:29;24.25;43.17
67502;SHT30;54349;52.528;19.760;2023-03-24T09:25:58;24.27;43.34
67502;SHT30;54349;52.528;19.760;2023-03-24T09:28:28;24.27;43.62
67502;SHT30;54349;52.528;19.760;2023-03-24T09:30:58;24.28;43.78
67502;SHT30;54349;52.528;19.760;2023-03-24T09:33:30;24.28;43.85
67502;SHT30;54349;52.528;19.760;2023-03-24T09:36:01;24.30;43.82
67502;SHT30;54349;52.528;19.760;2023-03-24T09:38:31;24.31;43.65
67502;SHT30;54349;52.528;19.760;2023-03-24T09:41:02;24.32;43.45
67502;SHT30;54349;52.528;19.760;2023-03-24T09:47:02;24.33;43.12
67502;SHT30;54349;52.528;19.760;2023-03-24T09:49:21;24.33;43.36
67502;SHT30;54349;52.528;19.760;2023-03-24T09:52:04;24.35;43.40
67502;SHT30;54349;52.528;19.760;2023-03-24T09:57:22;24.41;43.32
67502;SHT30;54349;52.528;19.760;2023-03-24T09:59:55;24.43;43.30
67502;SHT30;54349;52.528;19.760;2023-03-24T10:02:25;24.45;43.19
67502;SHT30;54349;52.528;19.760;2023-03-24T10:04:57;24.45;43.32
67502;SHT30;54349;52.528;19.760;2023-03-24T10:10:00;24.48;43.52
67502;SHT30;54349;52.528;19.760;2023-03-24T10:18:27;24.50;43.57
67502;SHT30;54349;52.528;19.760;2023-03-24T10:21:07;24.52;43.93
67502;SHT30;54349;52.528;19.760;2023-03-24T10:29:37;24.57;43.93
67502;SHT30;54349;52.528;19.760;2023-03-24T10:32:11;24.58;43.90
67502;SHT30;54349;52.528;19.760;2023-03-24T10:34:44;24.58;43.70
67502;SHT30;54349;52.528;19.760;2023-03-24T10:37:20;24.58;43.97
67502;SHT30;54349;52.528;19.760;2023-03-24T10:39:49;24.57;44.24
67502;SHT30;54349;52.528;19.760;2023-03-24T10:42:20;24.57;44.30
67502;SHT30;54349;52.528;19.760;2023-03-24T10:44:53;24.59;44.48
67502;SHT30;54349;52.528;19.760;2023-03-24T10:47:26;24.59;44.62
67502;SHT30;54349;52.528;19.760;2023-03-24T10:50:00;24.61;44.66
67502;SHT30;54349;52.528;19.760;2023-03-24T10:52:42;24.63;44.70
67502;SHT30;54349;52.528;19.760;2023-03-24T10:55:17;24.65;44.75
67502;SHT30;54349;52.528;19.760;2023-03-24T10:57:52;24.66;44.75
67502;SHT30;54349;52.528;19.760;2023-03-24T11:00:25;24.68;44.80
67502;SHT30;54349;52.528;19.760;2023-03-24T11:02:59;24.71;44.84
67502;SHT30;54349;52.528;19.760;2023-03-24T11:05:42;24.73;45.13
67502;SHT30;54349;52.528;19.760;2023-03-24T11:10:45;24.79;45.08
67502;SHT30;54349;52.528;19.760;2023-03-24T11:21:56;24.92;45.08
67502;SHT30;54349;52.528;19.760;2023-03-24T11:24:30;24.96;45.08
67502;SHT30;54349;52.528;19.760;2023-03-24T11:27:04;24.98;45.09
67502;SHT30;54349;52.528;19.760;2023-03-24T11:29:37;25.02;45.26
67502;SHT30;54349;52.528;19.760;2023-03-24T11:32:12;25.05;45.57
67502;SHT30;54349;52.528;19.760;2023-03-24T11:35:04;25.09;45.59
67502;SHT30;54349;52.528;19.760;2023-03-24T11:37:44;25.10;45.50
67502;SHT30;54349;52.528;19.760;2023-03-24T11:40:15;25.13;45.66
67502;SHT30;54349;52.528;19.760;2023-03-24T11:42:49;25.14;45.57
67502;SHT30;54349;52.528;19.760;2023-03-24T11:45:40;25.15;45.42
67502;SHT30;54349;52.528;19.760;2023-03-24T11:48:30;25.17;45.18
67502;SHT30;54349;52.528;19.760;2023-03-24T11:51:08;25.17;44.86
67502;SHT30;54349;52.528;19.760;2023-03-24T11:53:49;25.20;44.65
67502;SHT30;54349;52.528;19.760;2023-03-24T11:56:26;25.21;44.63
67502;SHT30;54349;52.528;19.760;2023-03-24T12:05:40;25.27;43.96
67502;SHT30;54349;52.528;19.760;2023-03-24T12:08:21;25.28;43.69
67502;SHT30;54349;52.528;19.760;2023-03-24T12:18:15;25.30;42.98
67502;SHT30;54349;52.528;19.760;2023-03-24T12:26:33;25.32;42.70
67502;SHT30;54349;52.528;19.760;2023-03-24T12:37:42;25.32;42.34
67502;SHT30;54349;52.528;19.760;2023-03-24T12:55:45;25.44;42.45
67502;SHT30;54349;52.528;19.760;2023-03-24T13:04:13;25.50;42.26
67502;SHT30;54349;52.528;19.760;2023-03-24T13:07:18;25.52;42.00
67502;SHT30;54349;52.528;19.760;2023-03-24T13:21:21;25.60;41.92
67502;SHT30;54349;52.528;19.760;2023-03-24T13:23:39;25.62;41.78
67502;SHT30;54349;52.528;19.760;2023-03-24T13:26:39;25.63;41.79
67502;SHT30;54349;52.528;19.760;2023-03-24T13:33:19;25.66;41.84
67502;SHT30;54349;52.528;19.760;2023-03-24T13:36:41;25.67;41.86
67502;SHT30;54349;52.528;19.760;2023-03-24T13:39:16;25.68;41.82
67502;SHT30;54349;52.528;19.760;2023-03-24T13:41:50;25.68;41.88
67502;SHT30;54349;52.528;19.760;2023-03-24T13:44:29;25.71;41.84
67502;SHT30;54349;52.528;19.760;2023-03-24T13:47:15;25.74;41.66
67502;SHT30;54349;52.528;19.760;2023-03-24T13:49:59;25.75;41.55
67502;SHT30;54349;52.528;19.760;2023-03-24T13:52:34;25.75;41.56
67502;SHT30;54349;52.528;19.760;2023-03-24T13:55:08;25.76;41.47
67502;SHT30;54349;52.528;19.760;2023-03-24T13:57:56;25.77;41.58
67502;SHT30;54349;52.528;19.760;2023-03-24T14:00:31;25.78;41.49
67502;SHT30;54349;52.528;19.760;2023-03-24T14:06:00;25.80;41.50
67502;SHT30;54349;52.528;19.760;2023-03-24T14:14:05;25.83;41.57
67502;SHT30;54349;52.528;19.760;2023-03-24T14:25:02;25.80;41.49
67502;SHT30;54349;52.528;19.760;2023-03-24T14:34:29;25.76;41.49
67502;SHT30;54349;52.528;19.760;2023-03-24T14:36:58;25.75;41.51
67502;SHT30;54349;52.528;19.760;2023-03-24T14:39:38;25.74;41.49
67502;SHT30;54349;52.528;19.760;2023-03-24T14:45:02;25.72;41.49
67502;SHT30;54349;52.528;19.760;2023-03-24T14:47:57;25.71;41.49
67502;SHT30;54349;52.528;19.760;2023-03-24T14:50:28;25.70;41.48
67502;SHT30;54349;52.528;19.760;2023-03-24T14:52:59;25.69;41.50
67502;SHT30;54349;52.528;19.760;2023-03-24T14:55:30;25.68;41.50
67502;SHT30;54349;52.528;19.760;2023-03-24T14:58:01;25.67;41.57
67502;SHT30;54349;52.528;19.760;2023-03-24T15:00:46;25.65;41.59
67502;SHT30;54349;52.528;19.760;2023-03-24T15:06:21;25.63;41.64
67502;SHT30;54349;52.528;19.760;2023-03-24T15:08:55;25.62;41.66
67502;SHT30;54349;52.528;19.760;2023-03-24T15:11:27;25.61;41.70
67502;SHT30;54349;52.528;19.760;2023-03-24T15:14:04;25.61;41.68
67502;SHT30;54349;52.528;19.760;2023-03-24T15:16:38;25.60;41.71
67502;SHT30;54349;52.528;19.760;2023-03-24T15:19:17;25.58;41.74
67502;SHT30;54349;52.528;19.760;2023-03-24T15:21:57;25.58;41.77
67502;SHT30;54349;52.528;19.760;2023-03-24T15:24:27;25.58;41.81
67502;SHT30;54349;52.528;19.760;2023-03-24T15:29:35;25.54;41.86
67502;SHT30;54349;52.528;19.760;2023-03-24T15:32:16;25.51;41.92
67502;SHT30;54349;52.528;19.760;2023-03-24T15:34:49;25.49;41.96
67502;SHT30;54349;52.528;19.760;2023-03-24T15:37:29;25.48;41.99
67502;SHT30;54349;52.528;19.760;2023-03-24T15:42:53;25.44;42.09
67502;SHT30;54349;52.528;19.760;2023-03-24T15:45:28;25.44;42.11
67502;SHT30;54349;52.528;19.760;2023-03-24T15:47:57;25.42;42.16
67502;SHT30;54349;52.528;19.760;2023-03-24T15:50:36;25.39;42.23
67502;SHT30;54349;52.528;19.760;2023-03-24T15:55:41;25.38;42.30
67502;SHT30;54349;52.528;19.760;2023-03-24T16:00:59;25.34;42.36
67502;SHT30;54349;52.528;19.760;2023-03-24T16:03:33;25.32;42.40
67502;SHT30;54349;52.528;19.760;2023-03-24T16:06:11;25.31;42.41
67502;SHT30;54349;52.528;19.760;2023-03-24T16:08:50;25.29;42.48
67502;SHT30;54349;52.528;19.760;2023-03-24T16:11:20;25.28;42.49
67502;SHT30;54349;52.528;19.760;2023-03-24T16:13:48;25.26;42.50
67502;SHT30;54349;52.528;19.760;2023-03-24T16:16:21;25.26;42.55
67502;SHT30;54349;52.528;19.760;2023-03-24T16:18:55;25.25;42.58
67502;SHT30;54349;52.528;19.760;2023-03-24T16:21:26;25.24;42.56
67502;SHT30;54349;52.528;19.760;2023-03-24T16:23:56;25.23;42.51
67502;SHT30;54349;52.528;19.760;2023-03-24T16:26:28;25.22;42.50
67502;SHT30;54349;52.528;19.760;2023-03-24T16:29:01;25.21;42.49
67502;SHT30;54349;52.528;19.760;2023-03-24T16:31:54;25.20;42.48
67502;SHT30;54349;52.528;19.760;2023-03-24T16:34:23;25.19;42.48
67502;SHT30;54349;52.528;19.760;2023-03-24T16:36:52;25.17;42.47
67502;SHT30;54349;52.528;19.760;2023-03-24T16:39:25;25.16;42.47
67502;SHT30;54349;52.528;19.760;2023-03-24T16:41:55;25.15;42.48
67502;SHT30;54349;52.528;19.760;2023-03-24T16:44:24;25.13;42.47
67502;SHT30;54349;52.528;19.760;2023-03-24T16:46:53;25.12;42.46
67502;SHT30;54349;52.528;19.760;2023-03-24T16:49:22;25.10;42.46
67502;SHT30;54349;52.528;19.760;2023-03-24T16:51:51;25.08;42.48
67502;SHT30;54349;52.528;19.760;2023-03-24T16:54:20;25.08;42.51
67502;SHT30;54349;52.528;19.760;2023-03-24T16:56:48;25.07;42.47
67502;SHT30;54349;52.528;19.760;2023-03-24T16:59:17;25.05;42.51
67502;SHT30;54349;52.528;19.760;2023-03-24T17:01:46;25.04;42.58
67502;SHT30;54349;52.528;19.760;2023-03-24T17:04:19;25.02;42.53
67502;SHT30;54349;52.528;19.760;2023-03-24T17:06:52;25.00;42.59
67502;SHT30;54349;52.528;19.760;2023-03-24T17:09:21;24.99;42.58
67502;SHT30;54349;52.528;19.760;2023-03-24T17:11:53;24.97;42.58
67502;SHT30;54349;52.528;19.760;2023-03-24T17:14:25;24.96;42.60
67502;SHT30;54349;52.528;19.760;2023-03-24T17:16:54;24.94;42.58
67502;SHT30;54349;52.528;19.760;2023-03-24T17:19:22;24.93;42.56
67502;SHT30;54349;52.528;19.760;2023-03-24T17:24:25;24.91;42.60
67502;SHT30;54349;52.528;19.760;2023-03-24T17:26:55;24.90;42.60
67502;SHT30;54349;52.528;19.760;2023-03-24T17:29:23;24.89;42.61
67502;SHT30;54349;52.528;19.760;2023-03-24T17:31:52;24.87;42.59
67502;SHT30;54349;52.528;19.760;2023-03-24T17:34:21;24.86;42.60
67502;SHT30;54349;52.528;19.760;2023-03-24T17:36:49;24.85;42.61
67502;SHT30;54349;52.528;19.760;2023-03-24T17:39:19;24.85;42.69
67502;SHT30;54349;52.528;19.760;2023-03-24T17:41:48;24.83;42.78
67502;SHT30;54349;52.528;19.760;2023-03-24T17:44:17;24.82;42.80
67502;SHT30;54349;52.528;19.760;2023-03-24T17:46:45;24.80;42.79
67502;SHT30;54349;52.528;19.760;2023-03-24T17:49:16;24.78;42.80
67502;SHT30;54349;52.528;19.760;2023-03-24T17:51:44;24.77;42.76
67502;SHT30;54349;52.528;19.760;2023-03-24T17:54:13;24.75;42.73
67502;SHT30;54349;52.528;19.760;2023-03-24T17:56:43;24.74;42.76
67502;SHT30;54349;52.528;19.760;2023-03-24T17:59:11;24.72;42.79
67502;SHT30;54349;52.528;19.760;2023-03-24T18:01:39;24.71;42.77
67502;SHT30;54349;52.528;19.760;2023-03-24T18:04:07;24.70;42.78
67502;SHT30;54349;52.528;19.760;2023-03-24T18:06:36;24.69;42.77
67502;SHT30;54349;52.528;19.760;2023-03-24T18:09:05;24.68;42.80
67502;SHT30;54349;52.528;19.760;2023-03-24T18:11:34;24.67;42.79
67502;SHT30;54349;52.528;19.760;2023-03-24T18:14:03;24.66;42.80
67502;SHT30;54349;52.528;19.760;2023-03-24T18:16:32;24.65;42.83
67502;SHT30;54349;52.528;19.760;2023-03-24T18:19:02;24.64;42.85
67502;SHT30;54349;52.528;19.760;2023-03-24T18:21:31;24.63;42.91
67502;SHT30;54349;52.528;19.760;2023-03-24T18:24:00;24.63;43.00
67502;SHT30;54349;52.528;19.760;2023-03-24T18:26:29;24.62;43.08
67502;SHT30;54349;52.528;19.760;2023-03-24T18:28:59;24.60;43.13
67502;SHT30;54349;52.528;19.760;2023-03-24T18:31:27;24.58;43.26
67502;SHT30;54349;52.528;19.760;2023-03-24T18:34:00;24.55;43.35
67502;SHT30;54349;52.528;19.760;2023-03-24T18:36:28;24.53;43.33
67502;SHT30;54349;52.528;19.760;2023-03-24T18:39:01;24.51;43.35
67502;SHT30;54349;52.528;19.760;2023-03-24T18:41:34;24.50;43.38
67502;SHT30;54349;52.528;19.760;2023-03-24T18:44:05;24.49;43.43
67502;SHT30;54349;52.528;19.760;2023-03-24T18:46:38;24.47;43.48
67502;SHT30;54349;52.528;19.760;2023-03-24T18:49:17;24.46;43.39
67502;SHT30;54349;52.528;19.760;2023-03-24T18:51:46;24.43;43.27
67502;SHT30;54349;52.528;19.760;2023-03-24T18:54:14;24.41;43.15
67502;SHT30;54349;52.528;19.760;2023-03-24T18:56:43;24.40;42.78
67502;SHT30;54349;52.528;19.760;2023-03-24T18:59:11;24.37;42.61
67502;SHT30;54349;52.528;19.760;2023-03-24T19:01:39;24.35;42.36
67502;SHT30;54349;52.528;19.760;2023-03-24T19:04:08;24.33;42.07
67502;SHT30;54349;52.528;19.760;2023-03-24T19:06:36;24.30;41.67
67502;SHT30;54349;52.528;19.760;2023-03-24T19:09:09;24.29;41.57
67502;SHT30;54349;52.528;19.760;2023-03-24T19:11:40;24.27;41.05
67502;SHT30;54349;52.528;19.760;2023-03-24T19:14:10;24.25;40.83
67502;SHT30;54349;52.528;19.760;2023-03-24T19:16:38;24.22;40.98
67502;SHT30;54349;52.528;19.760;2023-03-24T19:19:07;24.20;41.36
67502;SHT30;54349;52.528;19.760;2023-03-24T19:21:37;24.18;41.61